Ana Sayfa
METAR-TAF:

METAR-TAF

Havaalanları :

Saltillo, Meksika

Enlem: 25-27N, Boylam: 100-59W, yükseklik: 1790 m

Güncel hava durumu gözlemi

Rapor saat 18:40 UTC de 9 dakika önce yapıldı.
Sakin rüzgar
Sıcaklık 31°C
Nem 33%
Basınç 1019 hPa
Görüş mesafesi: 16.1 km
4000 ft yükseklikte parçalı bulutlu
20000 ft yükseklikte parçalı çok bulutlu

METAR: MMIO 191840Z 00000KT 10SM SCT040 BKN200 31/13 A3010 RMK 8/102

Saat: 13:49 (18:49 UTC)

Tahmin

Rapor saat 17:25 UTC de 1 saat ve 24 dakika önce yapıldı.
Ayın 19'si saat 18 UTC'den ayın 20'si saat 18 UTC'ye kadar geçerli Tahmin
Rüzgar batı/kuzeybatıdan 5 kt
Görüş mesafesi: 10 km
4000 ft yükseklikte parçalı bulutlu
20000 ft yükseklikte parçalı çok bulutlu
Ayın 20'si saat 0200 UTC'den
Rüzgar kuzeydan kt
Görüş mesafesi: 10 km
3000 ft yükseklikte parçalı bulutlu
20000 ft yükseklikte parçalı çok bulutlu

TAF: MMIO 191725Z 1918/2018 30005KT P6SM SCT040 BKN200 FM200200 00000KT P6SM SCT030 BKN200

4.000'den fazla havaalanı için hava durumu gözlemleri ve tahminleri (METAR ve TAF raporları).

Kullanılabilir istasyonlar harita üzerinde sarı ve kırmızı noktalarla gösterilir.

İstasyonun adını görmek için fareyi noktanın üzerinde gezdirin.

Sonrasında hava gözlem ve tahminlerini görmek için tıklayın.

Haritayı değiştirmek için: yaklaştırmak için siyah artı işaretli yeşil düğmeye ve uzaklaştırmak için de eksi işaretli düğmeye hızla tıklayın; bitişik haritalar için yeşil okları kullanın.


METAR-TAF: